• Join FlightAware (Why Join?)
  • Login
  • US Flag 
10:07PM EST


 

Airport Tracker/Info


-or-


 

Live Flight TrackerFlight Track Log ✈ SKW6492 ✈ 11-Oct-2013 ✈ KDEN - KCOD

Flight Track Log - Related Links

Times and Time Zones

All times are in EDT time to prevent confusion due to time zone crossing. See the SKW6492 flight status page for this flight to view local times or setup timezone preferences in your user account.

Time Position Orientation Groundspeed Altitude Reporting Facility
EDT Latitude Longitude Course Direction KTS MPH feet Rate Location/Type
10:21PM 39.8833 -104.5833 75° East 180 207 7,000  Level Denver TRACON
10:22PM 39.9000 -104.5000 75° East 249 287 8,700 1,800 Climbing Denver TRACON
10:23PM 39.9333 -104.4167 62° Northeast 298 343 10,700 1,860 Climbing Denver TRACON
10:24PM 40.0167 -104.3833 17° North 325 374 12,500 1,680 Climbing Denver TRACON
10:25PM 40.1000 -104.4333 335° Northwest 322 371 14,300 1,560 Climbing Denver TRACON
10:26PM 40.1833 -104.5000 329° Northwest 324 373 15,900 1,380 Climbing Denver TRACON
10:27PM 40.2658 -104.5772 324° Northwest 341 392 17,400 1,440 Climbing Denver Center
10:28PM 40.3575 -104.6386 333° Northwest 346 398 19,100 1,260 Climbing Denver Center
10:29PM 40.4508 -104.6842 340° North 357 411 20,100 1,080 Climbing Denver Center
10:30PM 40.5467 -104.7333 339° North 369 425 21,400 1,200 Climbing Denver Center
10:31PM 40.6558 -104.7861 340° North 387 445 22,600 1,020 Climbing Denver Center
10:32PM 40.7483 -104.8339 339° North 383 441 23,600 1,020 Climbing Denver Center
10:33PM 40.8497 -104.8775 342° North 384 442 24,700 1,020 Climbing Denver Center
10:34PM 40.9519 -104.9308 338° Northwest 392 451 25,800 1,140 Climbing Denver Center
10:35PM 41.0714 -104.9892 340° North 392 451 27,100 1,080 Climbing Denver Center
10:36PM 41.1681 -105.0375 339° North 389 448 28,100 960 Climbing Denver Center
10:37PM 41.2589 -105.1400 320° Northwest 385 443 29,100 720 Climbing Denver Center
10:38PM 41.3367 -105.2256 320° Northwest 381 438 29,700 480 Climbing Denver Center
10:39PM 41.4158 -105.3139 320° Northwest 385 443 30,200 480 Climbing Denver Center
10:40PM 41.5092 -105.4181 320° Northwest 390 449 30,800 540 Climbing Denver Center
10:41PM 41.5897 -105.5078 320° Northwest 393 452 31,400 540 Climbing Denver Center
10:42PM 41.6831 -105.6133 320° Northwest 392 451 32,000 240 Climbing Denver Center
10:43PM 41.7636 -105.7047 320° Northwest 395 455 32,000  Level Denver Center
10:44PM 41.8469 -105.7978 320° Northwest 405 466 32,000  Level Denver Center
10:45PM 41.9439 -105.9089 320° Northwest 409 471 32,000  Level Denver Center
10:46PM 42.0278 -106.0044 320° Northwest 410 472 32,000  Level Denver Center
10:47PM 42.1253 -106.1175 319° Northwest 412 474 32,000  Level Denver Center
10:48PM 42.2097 -106.2147 320° Northwest 416 479 32,000  Level Denver Center
10:49PM 42.3089 -106.3278 320° Northwest 417 480 32,000  Level Denver Center
10:50PM 42.3925 -106.4258 319° Northwest 416 479 32,000  Level Denver Center
10:51PM 42.4758 -106.5233 319° Northwest 415 478 32,000  Level Denver Center
10:52PM 42.5739 -106.6378 319° Northwest 416 479 32,000  Level Denver Center
10:54PM 42.6572 -106.7344 320° Northwest 413 475 32,000  Level Denver Center
10:55PM 42.7528 -106.8492 319° Northwest 411 473 32,000  Level Denver Center
10:56PM 42.8344 -106.9453 319° Northwest 407 468 32,000  Level Denver Center
10:56PM 42.9050 -107.0292 319° Northwest 407 468 32,000  Level Salt Lake Center
10:57PM 42.9883 -107.1294 319° Northwest 405 466 32,000  Level Salt Lake Center
10:58PM 43.0750 -107.2256 321° Northwest 402 463 32,000  Level Salt Lake Center
10:59PM 43.1669 -107.3094 326° Northwest 400 460 32,000  Level Salt Lake Center
11:00PM 43.2606 -107.3967 326° Northwest 405 466 32,000  Level Salt Lake Center
11:01PM 43.3517 -107.4831 325° Northwest 401 461 32,000  Level Salt Lake Center
11:03PM 43.4436 -107.5714 325° Northwest 403 464 32,000  Level Salt Lake Center
11:04PM 43.5539 -107.6753 326° Northwest 399 459 32,000 -120 Level Salt Lake Center
11:05PM 43.6444 -107.7639 325° Northwest 399 459 31,800 -1,140 Descending Salt Lake Center
11:06PM 43.7383 -107.8544 325° Northwest 407 468 29,700 -2,220 Descending Salt Lake Center
11:07PM 43.8308 -107.9431 325° Northwest 407 468 27,400 -2,280 Descending Salt Lake Center
11:08PM 43.9244 -108.0328 325° Northwest 408 470 25,100 -2,280 Descending Salt Lake Center
11:09PM 44.0197 -108.1236 326° Northwest 413 475 22,800 -2,280 Descending Salt Lake Center
11:10PM 44.1117 -108.2136 325° Northwest 409 471 20,500 -2,280 Descending Salt Lake Center
11:11PM 44.2017 -108.3025 325° Northwest 402 463 18,200 -2,280 Descending Salt Lake Center
11:12PM 44.2903 -108.3883 325° Northwest 395 455 15,900 -2,280 Descending Salt Lake Center
11:13PM 44.3739 -108.4714 325° Northwest 385 443 13,600 -2,400 Descending Salt Lake Center
11:14PM 44.4658 -108.5611 325° Northwest 360 414 11,100 -1,680 Descending Salt Lake Center
11:15PM 44.5300 -108.6239 325° Northwest 321 369 10,300 -1,020 Descending Salt Lake Center
11:16PM 44.5856 -108.6806 324° Northwest 275 316 9,100 -900 Descending Salt Lake Center
11:17PM 44.6369 -108.7356 323° Northwest 252 290 8,500 -660 Descending Salt Lake Center
11:18PM 44.6461 -108.7964 282° West 224 258 7,800 -540 Descending Salt Lake Center
11:19PM 44.6169 -108.8547 235° Southwest 198 228 7,500 -300 Descending Salt Lake Center
11:20PM 44.5894 -108.9019 231° Southwest 177 204 7,200 -600 Descending Salt Lake Center
11:21PM 44.5633 -108.9492 232° Southwest 165 190 6,400 -840 Descending Salt Lake Center
11:22PM 44.5383 -108.9933 232° Southwest 155 178 5,500 -660 Descending Salt Lake Center
11:23PM 44.5106 -109.0428 232° Southwest 153 176 5,100 -420 Descending Salt Lake Center